createdAt,value
2022-10-26T00:01:11.826Z,13.99
2022-10-26T00:03:41.933Z,13.96
2022-10-26T00:06:11.853Z,14.03
2022-10-26T00:08:42.155Z,13.92
2022-10-26T00:11:10.864Z,14.00
2022-10-26T00:13:40.143Z,13.99
2022-10-26T00:16:11.225Z,13.98
2022-10-26T00:18:40.315Z,13.84
2022-10-26T00:21:10.606Z,13.90
2022-10-26T00:23:38.142Z,13.84
2022-10-26T00:26:06.017Z,13.95
2022-10-26T00:28:33.668Z,13.86
2022-10-26T00:31:02.441Z,13.90
2022-10-26T00:33:30.169Z,13.89
2022-10-26T00:35:59.273Z,13.89
2022-10-26T00:38:26.695Z,13.91
2022-10-26T00:40:54.176Z,13.90
2022-10-26T00:43:42.989Z,13.87
2022-10-26T00:46:15.229Z,13.86
2022-10-26T00:48:45.667Z,13.88
2022-10-26T00:51:20.610Z,13.84
2022-10-26T00:53:48.444Z,13.88
2022-10-26T00:56:16.498Z,13.73
2022-10-26T00:58:44.998Z,13.71
2022-10-26T01:01:12.719Z,13.66
2022-10-26T01:03:40.288Z,13.67
2022-10-26T01:06:09.524Z,13.66
2022-10-26T01:08:38.573Z,13.73
2022-10-26T01:11:06.919Z,13.73
2022-10-26T01:13:36.819Z,13.74
2022-10-26T01:16:28.145Z,13.65
2022-10-26T01:19:04.404Z,13.75
2022-10-26T01:21:49.634Z,13.71
2022-10-26T01:24:28.252Z,13.65
2022-10-26T01:27:07.307Z,13.73
2022-10-26T01:30:13.205Z,13.67
2022-10-26T01:32:48.693Z,13.62
2022-10-26T01:35:22.400Z,13.53
2022-10-26T01:37:58.524Z,13.52
2022-10-26T01:40:30.428Z,13.48
2022-10-26T01:43:02.367Z,13.50
2022-10-26T01:45:31.791Z,13.62
2022-10-26T01:48:03.008Z,13.59
2022-10-26T01:50:32.571Z,13.37
2022-10-26T01:53:00.177Z,13.28
2022-10-26T01:55:55.257Z,13.43
2022-10-26T01:58:45.373Z,13.50
2022-10-26T02:01:32.919Z,13.36
2022-10-26T02:04:10.168Z,13.45
2022-10-26T02:06:46.480Z,13.43
2022-10-26T02:09:25.595Z,13.31
2022-10-26T02:11:54.985Z,13.31
2022-10-26T02:14:30.651Z,13.34
2022-10-26T02:17:03.463Z,13.39
2022-10-26T02:19:39.453Z,13.46
2022-10-26T02:22:13.462Z,13.40
2022-10-26T02:24:42.152Z,13.13
2022-10-26T02:27:16.261Z,13.21
2022-10-26T02:29:45.177Z,13.21
2022-10-26T02:32:13.573Z,13.16
2022-10-26T02:34:46.901Z,13.32
2022-10-26T02:37:19.009Z,13.28
2022-10-26T02:39:49.887Z,13.29
2022-10-26T02:42:19.292Z,13.32
2022-10-26T02:44:51.184Z,13.15
2022-10-26T02:47:19.749Z,13.15
2022-10-26T02:49:48.903Z,13.29
2022-10-26T02:52:23.884Z,13.14
2022-10-26T02:54:55.116Z,13.01
2022-10-26T02:57:28.689Z,13.03
2022-10-26T02:59:57.496Z,13.10
2022-10-26T03:02:25.611Z,13.12
2022-10-26T03:04:56.031Z,13.16
2022-10-26T03:07:24.332Z,13.14
2022-10-26T03:09:52.072Z,12.97
2022-10-26T03:12:19.558Z,13.03
2022-10-26T03:14:47.043Z,13.10
2022-10-26T03:17:14.460Z,13.19
2022-10-26T03:19:41.889Z,13.15
2022-10-26T03:22:10.603Z,13.03
2022-10-26T03:24:38.017Z,13.09
2022-10-26T03:27:05.436Z,12.95
2022-10-26T03:29:32.837Z,12.89
2022-10-26T03:32:00.266Z,13.02
2022-10-26T03:34:27.657Z,13.00
2022-10-26T03:36:55.059Z,12.98
2022-10-26T03:39:23.831Z,13.00
2022-10-26T03:41:51.340Z,12.96
2022-10-26T03:44:18.756Z,12.95
2022-10-26T03:46:46.174Z,13.00
2022-10-26T03:49:13.637Z,12.90
2022-10-26T03:51:41.059Z,12.92
2022-10-26T03:54:08.663Z,12.87
2022-10-26T03:56:37.407Z,12.92
2022-10-26T03:59:04.843Z,12.94
2022-10-26T04:01:32.306Z,13.01
2022-10-26T04:03:59.807Z,13.02
2022-10-26T04:06:27.267Z,12.99
2022-10-26T04:08:58.214Z,12.92
2022-10-26T04:11:25.610Z,12.96
2022-10-26T04:13:55.282Z,12.97
2022-10-26T04:16:22.923Z,12.88
2022-10-26T04:18:50.312Z,12.89
2022-10-26T04:21:17.852Z,12.92
2022-10-26T04:23:45.229Z,12.95
2022-10-26T04:26:12.625Z,12.95
2022-10-26T04:28:39.988Z,12.95
2022-10-26T04:31:08.729Z,12.96
2022-10-26T04:33:36.124Z,13.02
2022-10-26T04:36:03.593Z,12.95
2022-10-26T04:38:31.017Z,12.85
2022-10-26T04:40:58.464Z,12.93
2022-10-26T04:43:25.880Z,12.93
2022-10-26T04:45:56.011Z,12.81
2022-10-26T04:50:59.943Z,12.87
2022-10-26T04:53:27.404Z,12.84
2022-10-26T04:55:57.952Z,12.80
2022-10-26T04:58:25.470Z,12.91
2022-10-26T05:00:52.918Z,12.91
2022-10-26T05:03:20.653Z,12.95
2022-10-26T05:05:49.349Z,12.96
2022-10-26T05:08:17.343Z,12.91
2022-10-26T05:10:49.202Z,12.78
2022-10-26T05:13:16.960Z,12.69
2022-10-26T05:15:44.580Z,12.56
2022-10-26T05:18:12.032Z,12.80
2022-10-26T05:20:39.499Z,12.90
2022-10-26T05:23:13.868Z,12.86
2022-10-26T05:25:41.259Z,12.76
2022-10-26T05:28:13.264Z,12.67
2022-10-26T05:30:41.277Z,12.72
2022-10-26T05:33:10.727Z,12.83
2022-10-26T05:35:38.457Z,12.86
2022-10-26T05:38:11.142Z,12.85
2022-10-26T05:40:38.619Z,12.76
2022-10-26T05:43:06.043Z,12.62
2022-10-26T05:45:33.457Z,12.61
2022-10-26T05:48:03.057Z,12.63
2022-10-26T05:50:30.819Z,12.69
2022-10-26T05:52:58.305Z,12.71
2022-10-26T05:55:27.829Z,12.69
2022-10-26T05:57:55.697Z,12.67
2022-10-26T06:00:25.406Z,12.81
2022-10-26T06:03:09.336Z,12.74
2022-10-26T06:05:46.266Z,12.68
2022-10-26T06:08:14.269Z,12.64
2022-10-26T06:10:43.741Z,12.75
2022-10-26T06:13:11.685Z,12.72
2022-10-26T06:15:52.586Z,12.78
2022-10-26T06:18:30.436Z,12.71
2022-10-26T06:21:14.923Z,12.76
2022-10-26T06:23:52.613Z,12.60
2022-10-26T06:26:32.551Z,12.79
2022-10-26T06:29:10.642Z,12.78
2022-10-26T06:31:38.186Z,12.67
2022-10-26T06:34:05.803Z,12.70
2022-10-26T06:36:34.425Z,12.79
2022-10-26T06:39:05.120Z,12.84
2022-10-26T06:41:36.313Z,13.01
2022-10-26T06:44:05.789Z,12.96
2022-10-26T06:46:40.072Z,13.07
2022-10-26T06:49:14.972Z,13.08
2022-10-26T06:51:46.899Z,13.14
2022-10-26T06:54:20.932Z,13.02
2022-10-26T06:56:50.529Z,13.15
2022-10-26T06:59:24.922Z,13.15
2022-10-26T07:01:52.526Z,13.15
2022-10-26T07:04:19.985Z,13.08
2022-10-26T07:06:47.420Z,13.15
2022-10-26T07:09:14.790Z,13.16
2022-10-26T07:11:42.284Z,13.32
2022-10-26T07:14:11.009Z,13.41
2022-10-26T07:16:38.435Z,13.25
2022-10-26T07:19:06.083Z,13.40
2022-10-26T07:21:33.541Z,13.42
2022-10-26T07:24:00.973Z,13.59
2022-10-26T07:26:28.425Z,13.59
2022-10-26T07:28:56.033Z,13.25
2022-10-26T07:31:26.007Z,13.50
2022-10-26T07:33:54.656Z,13.68
2022-10-26T07:36:22.129Z,13.67
2022-10-26T07:38:52.628Z,13.58
2022-10-26T07:41:20.528Z,13.81
2022-10-26T07:43:50.684Z,13.73
2022-10-26T07:46:18.416Z,13.82
2022-10-26T07:48:47.119Z,13.82
2022-10-26T07:51:14.554Z,13.89
2022-10-26T07:53:42.004Z,14.03
2022-10-26T07:56:10.749Z,13.98
2022-10-26T07:58:38.463Z,14.06
2022-10-26T08:01:07.441Z,14.12
2022-10-26T08:03:34.999Z,14.08
2022-10-26T08:06:05.012Z,14.29
2022-10-26T08:08:32.634Z,14.27
2022-10-26T08:11:00.887Z,14.30
2022-10-26T08:13:28.377Z,14.18
2022-10-26T08:15:59.151Z,14.28
2022-10-26T08:18:26.978Z,14.43
2022-10-26T08:21:01.778Z,14.52
2022-10-26T08:23:38.973Z,14.40
2022-10-26T08:26:06.843Z,14.42
2022-10-26T08:28:34.525Z,14.55
2022-10-26T08:31:01.895Z,14.70
2022-10-26T08:33:29.312Z,14.81
2022-10-26T08:35:57.573Z,14.83
2022-10-26T08:38:25.644Z,14.88
2022-10-26T08:40:55.432Z,14.96
2022-10-26T08:43:29.323Z,14.67
2022-10-26T08:46:00.824Z,14.87
2022-10-26T08:48:34.037Z,15.08
2022-10-26T08:51:06.288Z,15.03
2022-10-26T08:53:41.624Z,14.97
2022-10-26T08:56:18.787Z,15.10
2022-10-26T08:58:51.615Z,14.80
2022-10-26T09:01:19.499Z,14.84
2022-10-26T09:03:47.029Z,15.30
2022-10-26T09:06:25.782Z,15.37
2022-10-26T09:09:03.350Z,15.09
2022-10-26T09:11:48.233Z,15.16
2022-10-26T09:14:20.666Z,15.30
2022-10-26T09:17:00.968Z,15.60
2022-10-26T09:19:38.692Z,15.50
2022-10-26T09:22:11.110Z,15.70
2022-10-26T09:24:43.184Z,15.85
2022-10-26T09:27:20.927Z,15.97
2022-10-26T09:29:50.294Z,16.06
2022-10-26T09:32:20.426Z,15.91
2022-10-26T09:34:52.183Z,15.53
2022-10-26T09:37:23.816Z,15.61
2022-10-26T09:39:59.830Z,16.03
2022-10-26T09:42:36.004Z,16.10
2022-10-26T09:45:13.152Z,16.55
2022-10-26T09:47:45.157Z,16.45
2022-10-26T09:50:23.290Z,16.23
2022-10-26T09:52:50.937Z,16.28
2022-10-26T09:55:18.873Z,16.60
2022-10-26T09:57:51.657Z,16.54
2022-10-26T10:00:22.552Z,16.49
2022-10-26T10:02:52.896Z,15.96
2022-10-26T10:05:50.365Z,16.64
2022-10-26T10:08:21.338Z,16.44
2022-10-26T10:11:06.086Z,16.28
2022-10-26T10:13:37.158Z,16.80
2022-10-26T10:16:12.591Z,17.02
2022-10-26T10:18:41.111Z,16.97
2022-10-26T10:21:09.951Z,16.65
2022-10-26T10:23:47.181Z,16.97
2022-10-26T10:26:14.761Z,17.10
2022-10-26T10:28:44.036Z,17.20
2022-10-26T10:31:22.696Z,16.95
2022-10-26T10:33:50.365Z,16.86
2022-10-26T10:36:20.977Z,16.89
2022-10-26T10:38:50.283Z,17.06
2022-10-26T10:41:21.292Z,17.37
2022-10-26T10:43:52.757Z,16.85
2022-10-26T10:46:27.630Z,17.27
2022-10-26T10:49:03.613Z,17.18
2022-10-26T10:51:37.312Z,17.27
2022-10-26T10:54:06.727Z,17.22
2022-10-26T10:56:38.742Z,17.39
2022-10-26T10:59:30.611Z,17.53
2022-10-26T11:02:19.184Z,17.28
2022-10-26T11:05:00.093Z,17.67
2022-10-26T11:07:30.648Z,17.66
2022-10-26T11:10:01.459Z,18.06
2022-10-26T11:12:32.909Z,18.03
2022-10-26T11:15:07.043Z,17.75
2022-10-26T11:17:39.188Z,17.92
2022-10-26T11:20:14.935Z,17.53
2022-10-26T11:22:58.447Z,18.00
2022-10-26T11:25:29.322Z,17.71
2022-10-26T11:28:00.631Z,18.10
2022-10-26T11:30:31.775Z,17.95
2022-10-26T11:33:04.071Z,18.09
2022-10-26T11:35:36.489Z,17.98
2022-10-26T11:38:09.317Z,17.92
2022-10-26T11:40:42.805Z,18.29
2022-10-26T11:43:15.505Z,18.26
2022-10-26T11:45:46.726Z,17.97
2022-10-26T11:48:22.218Z,17.74
2022-10-26T11:50:54.038Z,18.39
2022-10-26T11:53:26.379Z,18.25
2022-10-26T11:55:56.362Z,18.23
2022-10-26T11:58:26.458Z,18.38
2022-10-26T12:00:59.242Z,18.10
2022-10-26T12:03:29.696Z,18.33
2022-10-26T12:05:57.137Z,18.78
2022-10-26T12:08:27.624Z,18.21
2022-10-26T12:11:03.424Z,18.44
2022-10-26T12:13:37.217Z,18.42
2022-10-26T12:16:14.294Z,17.93
2022-10-26T12:19:01.541Z,17.97
2022-10-26T12:21:31.080Z,18.39
2022-10-26T12:24:00.685Z,18.47
2022-10-26T12:26:52.293Z,18.54
2022-10-26T12:29:38.043Z,18.49
2022-10-26T12:32:50.261Z,18.62
2022-10-26T12:35:37.204Z,18.81
2022-10-26T12:38:51.890Z,18.60
2022-10-26T12:41:22.393Z,18.81
2022-10-26T12:43:50.139Z,18.54
2022-10-26T12:46:45.255Z,18.76
2022-10-26T12:49:54.502Z,18.59
2022-10-26T12:52:41.577Z,18.46
2022-10-26T12:55:33.275Z,18.71
2022-10-26T12:58:17.893Z,18.84
2022-10-26T13:00:54.435Z,18.48
2022-10-26T13:03:31.061Z,18.68
2022-10-26T13:06:31.608Z,18.84
2022-10-26T13:09:01.645Z,18.58
2022-10-26T13:11:33.556Z,18.85
2022-10-26T13:14:04.322Z,18.48
2022-10-26T13:16:31.984Z,18.81
2022-10-26T13:19:00.521Z,18.66
2022-10-26T13:21:28.787Z,18.53
2022-10-26T13:24:05.279Z,18.81
2022-10-26T13:26:53.885Z,18.50
2022-10-26T13:29:30.847Z,18.76
2022-10-26T13:31:59.957Z,18.65
2022-10-26T13:34:30.870Z,18.73
2022-10-26T13:37:06.161Z,18.92
2022-10-26T13:39:37.569Z,18.75
2022-10-26T13:42:06.947Z,18.63
2022-10-26T13:44:40.370Z,18.66
2022-10-26T13:47:12.144Z,18.79
2022-10-26T13:49:42.082Z,18.93
2022-10-26T13:52:17.361Z,18.50
2022-10-26T13:54:51.370Z,18.59
2022-10-26T13:57:23.919Z,18.77
2022-10-26T13:59:53.715Z,18.81
2022-10-26T14:02:25.211Z,18.54
2022-10-26T14:04:54.637Z,18.79
2022-10-26T14:07:25.071Z,18.80
2022-10-26T14:09:57.769Z,18.81
2022-10-26T14:12:28.316Z,18.98
2022-10-26T14:15:03.770Z,18.93
2022-10-26T14:17:31.320Z,18.55
2022-10-26T14:19:58.941Z,18.86
2022-10-26T14:22:28.841Z,18.73
2022-10-26T14:24:58.194Z,18.49
2022-10-26T14:27:27.801Z,18.95
2022-10-26T14:30:23.891Z,18.83
2022-10-26T14:32:45.296Z,18.82
2022-10-26T14:35:13.789Z,18.35
2022-10-26T14:37:46.459Z,18.83
2022-10-26T14:40:18.402Z,19.02
2022-10-26T14:42:50.443Z,18.89
2022-10-26T14:45:29.879Z,18.65
2022-10-26T14:48:24.386Z,18.72
2022-10-26T14:51:02.490Z,18.72
2022-10-26T14:53:37.795Z,18.70
2022-10-26T14:56:07.077Z,18.61
2022-10-26T14:58:35.255Z,18.71
2022-10-26T15:01:31.624Z,18.65
2022-10-26T15:04:02.684Z,18.50
2022-10-26T15:06:32.467Z,18.61
2022-10-26T15:09:01.451Z,18.64
2022-10-26T15:11:30.449Z,18.69
2022-10-26T15:13:59.104Z,18.69
2022-10-26T15:16:28.269Z,18.70
2022-10-26T15:18:58.338Z,18.66
2022-10-26T15:21:31.248Z,18.62
2022-10-26T15:23:59.726Z,18.57
2022-10-26T15:26:27.356Z,18.42
2022-10-26T15:28:55.125Z,18.55
2022-10-26T15:31:35.121Z,18.48
2022-10-26T15:34:15.159Z,18.55
2022-10-26T15:36:44.446Z,18.56
2022-10-26T15:39:11.912Z,18.58
2022-10-26T15:41:45.231Z,18.55
2022-10-26T15:44:22.539Z,18.58
2022-10-26T15:46:50.655Z,18.54
2022-10-26T15:49:20.036Z,18.48
2022-10-26T15:51:50.020Z,18.28
2022-10-26T15:54:17.461Z,18.36
2022-10-26T15:56:45.500Z,18.24
2022-10-26T15:59:15.845Z,18.18
2022-10-26T16:01:43.384Z,18.21
2022-10-26T16:04:12.338Z,18.22
2022-10-26T16:06:42.233Z,18.24
2022-10-26T16:09:15.555Z,18.21
2022-10-26T16:11:43.481Z,18.21
2022-10-26T16:14:11.135Z,18.11
2022-10-26T16:16:38.948Z,17.96
2022-10-26T16:19:29.158Z,18.03
2022-10-26T16:21:53.941Z,18.00
2022-10-26T16:24:22.792Z,18.00
2022-10-26T16:26:50.332Z,18.04
2022-10-26T16:29:17.848Z,17.99
2022-10-26T16:31:45.301Z,17.94
2022-10-26T16:34:12.736Z,18.01
2022-10-26T16:36:40.203Z,18.03
2022-10-26T16:39:08.656Z,18.05
2022-10-26T16:41:37.381Z,18.11
2022-10-26T16:44:05.013Z,17.93
2022-10-26T16:46:32.553Z,18.03
2022-10-26T16:49:00.490Z,18.19
2022-10-26T16:51:29.049Z,17.99
2022-10-26T16:53:57.977Z,18.06
2022-10-26T16:56:27.357Z,18.04
2022-10-26T16:58:57.358Z,18.05
2022-10-26T17:01:25.502Z,18.04
2022-10-26T17:03:53.302Z,17.95
2022-10-26T17:06:21.285Z,18.10
2022-10-26T17:08:49.311Z,18.03
2022-10-26T17:11:18.860Z,18.17
2022-10-26T17:13:47.224Z,18.17
2022-10-26T17:16:19.140Z,18.15
2022-10-26T17:18:48.071Z,18.16
2022-10-26T17:21:17.815Z,18.06
2022-10-26T17:23:45.308Z,18.19
2022-10-26T17:26:14.723Z,18.13
2022-10-26T17:28:43.241Z,18.11
2022-10-26T17:31:13.258Z,18.06
2022-10-26T17:33:43.683Z,18.21
2022-10-26T17:36:13.078Z,18.19
2022-10-26T17:38:42.430Z,18.18
2022-10-26T17:41:12.049Z,18.02
2022-10-26T17:43:40.872Z,17.90
2022-10-26T17:46:11.395Z,17.86
2022-10-26T17:48:39.354Z,17.83
2022-10-26T17:51:11.178Z,17.74
2022-10-26T17:53:38.647Z,17.75
2022-10-26T17:56:08.182Z,17.94
2022-10-26T17:58:36.356Z,18.06
2022-10-26T18:01:06.594Z,17.95
2022-10-26T18:03:34.658Z,17.87
2022-10-26T18:06:02.648Z,17.89
2022-10-26T18:08:33.284Z,17.87
2022-10-26T18:11:01.300Z,17.84
2022-10-26T18:13:31.323Z,17.88
2022-10-26T18:16:04.274Z,17.79
2022-10-26T18:18:31.908Z,17.81
2022-10-26T18:21:02.794Z,17.76
2022-10-26T18:23:31.613Z,17.87
2022-10-26T18:26:08.345Z,17.83
2022-10-26T18:28:38.946Z,17.82
2022-10-26T18:31:08.393Z,17.75
2022-10-26T18:33:36.350Z,17.77
2022-10-26T18:36:04.947Z,17.86
2022-10-26T18:38:34.012Z,17.80
2022-10-26T18:41:01.847Z,17.90
2022-10-26T18:43:30.558Z,17.90
2022-10-26T18:46:05.677Z,17.88
2022-10-26T18:48:33.771Z,18.01
2022-10-26T18:51:05.217Z,18.20
2022-10-26T18:53:35.272Z,18.13
2022-10-26T18:56:04.411Z,18.11
2022-10-26T18:58:32.234Z,18.00
2022-10-26T19:01:09.278Z,18.04
2022-10-26T19:03:37.320Z,18.09
2022-10-26T19:06:12.185Z,17.96
2022-10-26T19:08:41.948Z,17.95
2022-10-26T19:11:10.904Z,18.06
2022-10-26T19:13:38.576Z,17.44
2022-10-26T19:16:16.974Z,17.71
2022-10-26T19:18:56.647Z,17.76
2022-10-26T19:21:24.968Z,17.78
2022-10-26T19:23:56.608Z,17.78
2022-10-26T19:26:26.799Z,17.74
2022-10-26T19:28:57.457Z,17.74
2022-10-26T19:31:27.262Z,17.72
2022-10-26T19:33:56.433Z,17.84
2022-10-26T19:36:23.968Z,17.70
2022-10-26T19:38:51.444Z,17.61
2022-10-26T19:41:22.374Z,17.67
2022-10-26T19:43:50.345Z,17.68
2022-10-26T19:46:21.083Z,17.64
2022-10-26T19:48:52.843Z,17.66
2022-10-26T19:51:20.950Z,17.47
2022-10-26T19:53:48.453Z,17.52
2022-10-26T19:56:16.712Z,17.47
2022-10-26T19:58:45.825Z,17.57
2022-10-26T20:01:15.451Z,17.39
2022-10-26T20:03:43.250Z,17.39
2022-10-26T20:06:12.906Z,17.47
2022-10-26T20:08:41.607Z,17.44
2022-10-26T20:11:13.199Z,17.41
2022-10-26T20:13:45.922Z,17.38
2022-10-26T20:16:14.736Z,17.25
2022-10-26T20:18:45.792Z,17.31
2022-10-26T20:21:16.295Z,17.24
2022-10-26T20:23:43.868Z,17.33
2022-10-26T20:26:18.092Z,17.18
2022-10-26T20:28:50.751Z,17.06
2022-10-26T20:31:18.216Z,17.09
2022-10-26T20:33:45.663Z,17.02
2022-10-26T20:36:13.071Z,17.08
2022-10-26T20:38:41.240Z,17.02
2022-10-26T20:41:12.044Z,16.97
2022-10-26T20:43:40.625Z,17.16
2022-10-26T20:46:11.652Z,17.16
2022-10-26T20:48:39.746Z,16.77
2022-10-26T20:51:16.678Z,16.98
2022-10-26T20:53:52.060Z,17.19
2022-10-26T20:56:24.730Z,16.74
2022-10-26T20:58:54.366Z,16.78
2022-10-26T21:01:26.019Z,16.96
2022-10-26T21:03:54.077Z,16.87
2022-10-26T21:06:22.210Z,16.85
2022-10-26T21:08:50.496Z,16.80
2022-10-26T21:11:18.453Z,16.82
2022-10-26T21:13:48.225Z,16.96
2022-10-26T21:16:16.085Z,16.81
2022-10-26T21:18:44.896Z,16.88
2022-10-26T21:21:12.617Z,16.72
2022-10-26T21:23:41.823Z,16.87
2022-10-26T21:26:10.101Z,16.82
2022-10-26T21:28:39.323Z,16.82
2022-10-26T21:31:09.398Z,16.84
2022-10-26T21:33:37.248Z,16.86
2022-10-26T21:36:07.914Z,16.76
2022-10-26T21:38:35.454Z,16.56
2022-10-26T21:41:04.588Z,16.58
2022-10-26T21:43:31.993Z,16.64
2022-10-26T21:46:03.571Z,16.72
2022-10-26T21:48:32.771Z,16.67
2022-10-26T21:51:02.190Z,16.54
2022-10-26T21:53:31.052Z,16.62
2022-10-26T21:56:02.361Z,16.64
2022-10-26T21:58:30.242Z,16.60
2022-10-26T22:01:06.152Z,16.47
2022-10-26T22:03:34.185Z,16.42
2022-10-26T22:06:01.757Z,16.36
2022-10-26T22:08:31.056Z,16.37
2022-10-26T22:10:59.270Z,16.50
2022-10-26T22:13:26.692Z,16.49
2022-10-26T22:16:12.654Z,16.41
2022-10-26T22:18:41.467Z,16.29
2022-10-26T22:21:10.518Z,16.37
2022-10-26T22:23:40.985Z,16.35
2022-10-26T22:26:10.941Z,16.39
2022-10-26T22:28:42.477Z,16.26
2022-10-26T22:31:13.928Z,16.30
2022-10-26T22:33:41.760Z,16.19
2022-10-26T22:36:10.816Z,16.33
2022-10-26T22:38:40.138Z,16.38
2022-10-26T22:41:08.538Z,16.26
2022-10-26T22:43:36.589Z,16.30
2022-10-26T22:46:06.329Z,16.31
2022-10-26T22:48:34.408Z,16.42
2022-10-26T22:51:06.119Z,16.50
2022-10-26T22:53:33.591Z,16.41
2022-10-26T22:56:03.187Z,16.65
2022-10-26T22:58:30.970Z,16.70
2022-10-26T23:01:03.460Z,16.61
2022-10-26T23:03:30.946Z,16.64
2022-10-26T23:05:59.213Z,16.53
2022-10-26T23:08:26.916Z,16.40
2022-10-26T23:10:54.756Z,16.49
2022-10-26T23:13:23.497Z,16.45
2022-10-26T23:15:50.899Z,16.44
2022-10-26T23:18:18.384Z,16.27
2022-10-26T23:20:49.095Z,16.29
2022-10-26T23:23:16.619Z,16.10
2022-10-26T23:25:44.159Z,16.03
2022-10-26T23:28:12.007Z,16.07
2022-10-26T23:30:40.704Z,16.07
2022-10-26T23:33:08.756Z,16.06
2022-10-26T23:35:36.145Z,16.13
2022-10-26T23:38:03.686Z,15.99
2022-10-26T23:40:31.151Z,15.95
2022-10-26T23:42:58.592Z,15.90
2022-10-26T23:45:26.026Z,15.89
2022-10-26T23:47:54.774Z,15.91
2022-10-26T23:50:22.210Z,16.00
2022-10-26T23:52:49.899Z,16.00
2022-10-26T23:55:17.691Z,15.99
2022-10-26T23:57:45.117Z,15.98
